createdAt,value
2023-04-24T00:00:32.213Z,98493.41
2023-04-24T00:03:22.288Z,98488.41
2023-04-24T00:05:49.365Z,98479.84
2023-04-24T00:08:16.835Z,98481.25
2023-04-24T00:10:43.984Z,98481.56
2023-04-24T00:13:11.196Z,98475.44
2023-04-24T00:15:38.320Z,98480.75
2023-04-24T00:18:05.720Z,98477.16
2023-04-24T00:20:36.734Z,98482.63
2023-04-24T00:23:04.208Z,98479.91
2023-04-24T00:25:31.063Z,98484.00
2023-04-24T00:27:58.317Z,98479.22
2023-04-24T00:30:25.259Z,98483.16
2023-04-24T00:32:54.821Z,98482.75
2023-04-24T00:35:24.452Z,98478.16
2023-04-24T00:37:54.063Z,98476.66
2023-04-24T00:40:23.714Z,98475.03
2023-04-24T00:42:51.143Z,98473.41
2023-04-24T00:45:18.238Z,98469.53
2023-04-24T00:47:46.760Z,98461.41
2023-04-24T00:50:15.668Z,98466.41
2023-04-24T00:52:43.069Z,98457.72
2023-04-24T00:55:10.522Z,98457.56
2023-04-24T00:57:38.484Z,98459.09
2023-04-24T01:00:06.979Z,98462.84
2023-04-24T01:02:35.839Z,98466.19
2023-04-24T01:05:03.155Z,98461.59
2023-04-24T01:07:33.265Z,98469.75
2023-04-24T01:10:02.008Z,98473.84
2023-04-24T01:12:29.737Z,98482.56
2023-04-24T01:14:57.900Z,98476.50
2023-04-24T01:17:25.202Z,98473.78
2023-04-24T01:19:58.267Z,98479.38
2023-04-24T01:22:25.516Z,98474.78
2023-04-24T01:24:57.354Z,98479.97
2023-04-24T01:27:24.640Z,98482.06
2023-04-24T01:29:52.996Z,98473.78
2023-04-24T01:32:20.997Z,98476.03
2023-04-24T01:34:48.145Z,98478.09
2023-04-24T01:37:17.841Z,98481.13
2023-04-24T01:39:47.818Z,98486.69
2023-04-24T01:42:15.938Z,98479.09
2023-04-24T01:44:43.706Z,98492.84
2023-04-24T01:47:14.134Z,98489.88
2023-04-24T01:49:41.678Z,98486.41
2023-04-24T01:52:09.175Z,98484.19
2023-04-24T01:54:41.024Z,98475.69
2023-04-24T01:57:08.489Z,98470.00
2023-04-24T01:59:38.134Z,98461.50
2023-04-24T02:02:05.436Z,98460.94
2023-04-24T02:04:32.630Z,98455.97
2023-04-24T02:07:00.082Z,98460.97
2023-04-24T02:09:27.002Z,98463.19
2023-04-24T02:11:57.479Z,98475.72
2023-04-24T02:14:24.749Z,98476.09
2023-04-24T02:16:54.545Z,98477.03
2023-04-24T02:19:21.466Z,98461.88
2023-04-24T02:21:51.725Z,98461.88
2023-04-24T02:24:21.089Z,98467.63
2023-04-24T02:26:51.452Z,98460.94
2023-04-24T02:29:19.057Z,98454.13
2023-04-24T02:31:46.396Z,98452.09
2023-04-24T02:34:15.168Z,98460.59
2023-04-24T02:36:42.536Z,98469.25
2023-04-24T02:39:09.496Z,98460.22
2023-04-24T02:41:36.753Z,98467.06
2023-04-24T02:44:03.603Z,98475.16
2023-04-24T02:46:33.931Z,98474.25
2023-04-24T02:49:01.273Z,98466.47
2023-04-24T02:51:28.455Z,98448.75
2023-04-24T02:53:57.832Z,98444.34
2023-04-24T02:56:28.407Z,98458.72
2023-04-24T02:58:57.498Z,98445.25
2023-04-24T03:01:27.260Z,98457.44
2023-04-24T03:03:57.014Z,98456.88
2023-04-24T03:06:24.450Z,98446.16
2023-04-24T03:08:53.692Z,98443.75
2023-04-24T03:11:26.295Z,98433.25
2023-04-24T03:13:53.412Z,98432.50
2023-04-24T03:16:25.498Z,98429.16
2023-04-24T03:18:58.051Z,98429.88
2023-04-24T03:21:28.452Z,98430.22
2023-04-24T03:23:55.860Z,98426.16
2023-04-24T03:26:26.073Z,98425.94
2023-04-24T03:29:04.726Z,98421.34
2023-04-24T03:31:32.016Z,98423.00
2023-04-24T03:33:59.004Z,98431.31
2023-04-24T03:36:27.170Z,98426.16
2023-04-24T03:39:00.257Z,98420.59
2023-04-24T03:41:31.318Z,98428.56
2023-04-24T03:44:24.381Z,98431.00
2023-04-24T03:46:54.604Z,98430.84
2023-04-24T03:49:26.887Z,98433.06
2023-04-24T03:51:54.409Z,98426.22
2023-04-24T03:54:24.146Z,98422.34
2023-04-24T03:56:52.990Z,98432.84
2023-04-24T03:59:23.392Z,98430.28
2023-04-24T04:02:05.658Z,98429.91
2023-04-24T04:04:33.063Z,98425.13
2023-04-24T04:07:03.748Z,98430.66
2023-04-24T04:09:31.364Z,98428.44
2023-04-24T04:11:58.525Z,98427.00
2023-04-24T04:14:25.485Z,98428.09
2023-04-24T04:16:54.827Z,98427.88
2023-04-24T04:19:22.348Z,98438.50
2023-04-24T04:21:54.584Z,98438.44
2023-04-24T04:24:39.171Z,98438.97
2023-04-24T04:27:07.409Z,98443.91
2023-04-24T04:29:42.241Z,98441.59
2023-04-24T04:32:12.097Z,98441.25
2023-04-24T04:34:39.161Z,98446.66
2023-04-24T04:37:07.686Z,98441.72
2023-04-24T04:39:49.747Z,98437.94
2023-04-24T04:42:24.736Z,98446.31
2023-04-24T04:44:52.203Z,98443.63
2023-04-24T04:47:24.858Z,98442.44
2023-04-24T04:49:54.084Z,98444.41
2023-04-24T04:52:26.869Z,98443.66
2023-04-24T04:55:06.555Z,98460.53
2023-04-24T04:57:54.009Z,98456.25
2023-04-24T05:00:25.503Z,98456.78
2023-04-24T05:02:54.292Z,98458.97
2023-04-24T05:05:21.660Z,98462.69
2023-04-24T05:07:49.922Z,98455.22
2023-04-24T05:10:17.028Z,98466.91
2023-04-24T05:12:46.270Z,98463.88
2023-04-24T05:15:13.449Z,98468.19
2023-04-24T05:17:41.673Z,98468.16
2023-04-24T05:20:10.866Z,98467.31
2023-04-24T05:22:38.966Z,98468.53
2023-04-24T05:25:06.864Z,98464.06
2023-04-24T05:27:57.391Z,98470.38
2023-04-24T05:30:24.291Z,98472.06
2023-04-24T05:32:51.615Z,98476.81
2023-04-24T05:35:19.828Z,98477.94
2023-04-24T05:37:47.358Z,98473.00
2023-04-24T05:40:17.396Z,98478.47
2023-04-24T05:42:46.891Z,98476.41
2023-04-24T05:45:17.842Z,98479.50
2023-04-24T05:47:45.230Z,98482.03
2023-04-24T05:50:12.416Z,98478.78
2023-04-24T05:52:39.680Z,98483.50
2023-04-24T05:55:19.577Z,98487.31
2023-04-24T05:57:48.258Z,98481.56
2023-04-24T06:00:15.592Z,98484.03
2023-04-24T06:02:50.336Z,98483.88
2023-04-24T06:05:17.574Z,98482.81
2023-04-24T06:07:47.273Z,98475.00
2023-04-24T06:10:14.244Z,98488.22
2023-04-24T06:12:44.461Z,98469.53
2023-04-24T06:15:19.094Z,98479.50
2023-04-24T06:17:52.937Z,98474.63
2023-04-24T06:20:21.373Z,98482.06
2023-04-24T06:22:49.059Z,98474.13
2023-04-24T06:25:16.222Z,98477.84
2023-04-24T06:27:44.400Z,98472.53
2023-04-24T06:30:11.573Z,98478.44
2023-04-24T06:32:39.450Z,98481.66
2023-04-24T06:35:08.515Z,98479.63
2023-04-24T06:37:35.774Z,98485.09
2023-04-24T06:40:03.087Z,98473.81
2023-04-24T06:42:30.677Z,98479.88
2023-04-24T06:44:57.562Z,98473.16
2023-04-24T06:47:25.153Z,98476.88
2023-04-24T06:49:53.610Z,98483.72
2023-04-24T06:52:20.970Z,98484.59
2023-04-24T06:54:48.043Z,98485.13
2023-04-24T06:57:17.093Z,98487.66
2023-04-24T06:59:44.269Z,98478.38
2023-04-24T07:02:11.781Z,98487.25
2023-04-24T07:04:41.538Z,98486.53
2023-04-24T07:07:10.562Z,98483.56
2023-04-24T07:09:43.479Z,98497.31
2023-04-24T07:12:14.479Z,98495.28
2023-04-24T07:14:41.796Z,98487.53
2023-04-24T07:17:09.067Z,98503.97
2023-04-24T07:19:38.705Z,98502.94
2023-04-24T07:22:06.160Z,98519.75
2023-04-24T07:24:33.785Z,98506.44
2023-04-24T07:27:07.503Z,98503.81
2023-04-24T07:29:34.690Z,98507.44
2023-04-24T07:32:04.088Z,98501.19
2023-04-24T07:34:31.416Z,98510.00
2023-04-24T07:36:58.786Z,98511.41
2023-04-24T07:39:25.879Z,98519.00
2023-04-24T07:41:53.203Z,98508.84
2023-04-24T07:44:22.309Z,98511.84
2023-04-24T07:46:49.536Z,98517.13
2023-04-24T07:49:18.505Z,98525.16
2023-04-24T07:51:47.339Z,98520.03
2023-04-24T07:54:14.247Z,98512.78
2023-04-24T07:56:43.080Z,98517.06
2023-04-24T07:59:11.108Z,98535.34
2023-04-24T08:01:38.573Z,98537.41
2023-04-24T08:04:08.084Z,98535.50
2023-04-24T08:06:35.768Z,98541.22
2023-04-24T08:09:05.062Z,98538.19
2023-04-24T08:11:33.046Z,98546.00
2023-04-24T08:13:59.938Z,98542.59
2023-04-24T08:16:29.792Z,98543.03
2023-04-24T08:18:56.744Z,98547.31
2023-04-24T08:21:24.399Z,98539.78
2023-04-24T08:23:54.231Z,98544.94
2023-04-24T08:26:21.713Z,98542.59
2023-04-24T08:28:48.625Z,98552.16
2023-04-24T08:31:15.769Z,98548.75
2023-04-24T08:33:42.647Z,98542.25
2023-04-24T08:36:09.887Z,98554.72
2023-04-24T08:38:37.196Z,98562.56
2023-04-24T08:41:05.634Z,98569.78
2023-04-24T08:43:34.130Z,98566.88
2023-04-24T08:46:01.876Z,98575.56
2023-04-24T08:48:31.825Z,98575.03
2023-04-24T08:51:00.307Z,98577.81
2023-04-24T08:53:29.976Z,98575.44
2023-04-24T08:55:57.850Z,98580.63
2023-04-24T08:58:28.280Z,98584.94
2023-04-24T09:00:56.040Z,98577.09
2023-04-24T09:03:27.476Z,98583.19
2023-04-24T09:05:56.305Z,98583.56
2023-04-24T09:08:27.718Z,98583.19
2023-04-24T09:10:55.394Z,98581.56
2023-04-24T09:13:22.426Z,98581.72
2023-04-24T09:15:49.915Z,98578.47
2023-04-24T09:18:16.899Z,98573.13
2023-04-24T09:21:02.981Z,98574.16
2023-04-24T09:23:30.880Z,98565.50
2023-04-24T09:25:59.361Z,98572.47
2023-04-24T09:28:27.113Z,98569.41
2023-04-24T09:31:06.628Z,98571.13
2023-04-24T09:33:34.204Z,98571.72
2023-04-24T09:36:01.586Z,98565.06
2023-04-24T09:38:32.454Z,98562.53
2023-04-24T09:41:04.625Z,98561.56
2023-04-24T09:43:34.367Z,98576.03
2023-04-24T09:46:05.635Z,98578.19
2023-04-24T09:48:33.388Z,98576.91
2023-04-24T09:51:02.536Z,98575.00
2023-04-24T09:53:30.663Z,98580.19
2023-04-24T09:56:08.435Z,98592.41
2023-04-24T09:58:36.856Z,98589.94
2023-04-24T10:01:04.505Z,98594.22
2023-04-24T10:03:32.345Z,98585.31
2023-04-24T10:06:00.401Z,98594.97
2023-04-24T10:08:27.792Z,98601.47
2023-04-24T10:10:57.356Z,98597.00
2023-04-24T10:13:24.227Z,98601.81
2023-04-24T10:15:51.807Z,98598.81
2023-04-24T10:18:19.004Z,98601.22
2023-04-24T10:20:46.573Z,98601.91
2023-04-24T10:23:13.733Z,98603.41
2023-04-24T10:25:43.368Z,98605.94
2023-04-24T10:28:11.342Z,98610.38
2023-04-24T10:30:40.165Z,98610.38
2023-04-24T10:33:08.929Z,98617.63
2023-04-24T10:35:38.749Z,98615.72
2023-04-24T10:38:16.848Z,98616.69
2023-04-24T10:40:45.199Z,98619.50
2023-04-24T10:43:17.440Z,98623.31
2023-04-24T10:46:03.964Z,98625.31
2023-04-24T10:48:31.134Z,98629.50
2023-04-24T10:50:58.289Z,98632.69
2023-04-24T10:53:29.152Z,98636.31
2023-04-24T10:55:59.418Z,98621.31
2023-04-24T10:58:36.665Z,98632.94
2023-04-24T11:01:06.360Z,98633.81
2023-04-24T11:03:35.046Z,98634.94
2023-04-24T11:06:04.051Z,98637.56
2023-04-24T11:08:32.356Z,98636.47
2023-04-24T11:10:59.620Z,98635.91
2023-04-24T11:13:27.282Z,98633.81
2023-04-24T11:16:13.750Z,98634.38
2023-04-24T11:18:46.803Z,98633.81
2023-04-24T11:21:14.123Z,98646.06
2023-04-24T11:23:42.058Z,98644.44
2023-04-24T11:26:20.917Z,98647.22
2023-04-24T11:28:48.384Z,98643.00
2023-04-24T11:31:38.762Z,98644.22
2023-04-24T11:34:09.771Z,98647.69
2023-04-24T11:36:37.430Z,98643.81
2023-04-24T11:39:04.692Z,98651.66
2023-04-24T11:41:32.005Z,98646.31
2023-04-24T11:43:58.930Z,98643.56
2023-04-24T11:46:31.087Z,98638.56
2023-04-24T11:48:58.488Z,98656.94
2023-04-24T11:51:33.863Z,98649.75
2023-04-24T11:54:08.845Z,98653.53
2023-04-24T11:56:36.371Z,98655.25
2023-04-24T11:59:05.531Z,98653.53
2023-04-24T12:01:43.457Z,98655.38
2023-04-24T12:04:10.648Z,98650.69
2023-04-24T12:06:38.442Z,98650.81
2023-04-24T12:09:17.422Z,98649.38
2023-04-24T12:11:58.949Z,98648.78
2023-04-24T12:14:26.324Z,98645.44
2023-04-24T12:16:53.775Z,98646.53
2023-04-24T12:19:24.144Z,98644.31
2023-04-24T12:22:06.626Z,98641.47
2023-04-24T12:24:36.047Z,98633.78
2023-04-24T12:27:05.929Z,98634.88
2023-04-24T12:29:33.179Z,98634.22
2023-04-24T12:32:00.546Z,98632.19
2023-04-24T12:34:27.546Z,98638.75
2023-04-24T12:36:54.889Z,98643.19
2023-04-24T12:39:24.644Z,98635.50
2023-04-24T12:42:01.052Z,98630.56
2023-04-24T12:44:35.716Z,98626.97
2023-04-24T12:47:02.984Z,98635.81
2023-04-24T12:49:33.069Z,98640.03
2023-04-24T12:52:02.614Z,98632.31
2023-04-24T12:54:33.510Z,98633.78
2023-04-24T12:57:01.372Z,98624.69
2023-04-24T12:59:30.627Z,98625.50
2023-04-24T13:01:59.451Z,98631.56
2023-04-24T13:04:26.444Z,98625.81
2023-04-24T13:06:55.967Z,98618.13
2023-04-24T13:09:22.904Z,98627.47
2023-04-24T13:11:50.381Z,98620.09
2023-04-24T13:14:20.056Z,98617.28
2023-04-24T13:16:47.388Z,98618.94
2023-04-24T13:19:14.294Z,98618.13
2023-04-24T13:21:41.772Z,98609.94
2023-04-24T13:24:08.969Z,98615.25
2023-04-24T13:26:38.611Z,98610.66
2023-04-24T13:29:05.764Z,98610.97
2023-04-24T13:31:33.217Z,98607.72
2023-04-24T13:34:06.297Z,98602.88
2023-04-24T13:36:33.799Z,98599.91
2023-04-24T13:39:05.644Z,98604.53
2023-04-24T13:41:34.322Z,98598.75
2023-04-24T13:44:01.241Z,98602.25
2023-04-24T13:46:30.866Z,98600.81
2023-04-24T13:49:00.493Z,98593.38
2023-04-24T13:51:30.557Z,98604.56
2023-04-24T13:53:57.486Z,98600.56
2023-04-24T13:56:24.739Z,98606.63
2023-04-24T13:58:53.234Z,98599.94
2023-04-24T14:01:25.850Z,98602.72
2023-04-24T14:03:53.785Z,98607.78
2023-04-24T14:06:21.326Z,98609.34
2023-04-24T14:08:48.728Z,98612.84
2023-04-24T14:11:18.603Z,98615.22
2023-04-24T14:13:46.366Z,98612.81
2023-04-24T14:16:14.109Z,98620.81
2023-04-24T14:18:41.241Z,98617.53
2023-04-24T14:21:08.900Z,98618.69
2023-04-24T14:23:38.380Z,98614.25
2023-04-24T14:26:05.886Z,98615.22
2023-04-24T14:28:33.483Z,98613.72
2023-04-24T14:31:00.734Z,98610.59
2023-04-24T14:33:27.576Z,98607.97
2023-04-24T14:35:55.132Z,98610.19
2023-04-24T14:38:22.977Z,98600.53
2023-04-24T14:41:05.702Z,98607.13
2023-04-24T14:43:36.428Z,98610.94
2023-04-24T14:46:04.324Z,98609.84
2023-04-24T14:48:31.641Z,98613.41
2023-04-24T14:50:59.553Z,98608.78
2023-04-24T14:53:26.506Z,98620.56
2023-04-24T14:55:54.598Z,98613.88
2023-04-24T14:58:21.594Z,98620.78
2023-04-24T15:00:51.106Z,98622.06
2023-04-24T15:03:18.750Z,98624.16
2023-04-24T15:05:46.280Z,98622.28
2023-04-24T15:08:13.189Z,98626.41
2023-04-24T15:10:40.488Z,98620.66
2023-04-24T15:13:07.402Z,98617.38
2023-04-24T15:15:34.595Z,98629.50
2023-04-24T15:18:01.609Z,98616.72
2023-04-24T15:20:28.874Z,98622.47
2023-04-24T15:22:55.916Z,98619.75
2023-04-24T15:25:23.309Z,98619.91
2023-04-24T15:27:50.232Z,98625.97
2023-04-24T15:30:20.250Z,98625.13
2023-04-24T15:32:47.234Z,98629.56
2023-04-24T15:35:14.513Z,98620.31
2023-04-24T15:37:41.570Z,98620.03
2023-04-24T15:40:09.524Z,98632.06
2023-04-24T15:42:36.549Z,98638.03
2023-04-24T15:45:04.562Z,98647.03
2023-04-24T15:47:32.966Z,98657.63
2023-04-24T15:50:00.207Z,98659.50
2023-04-24T15:52:27.236Z,98663.91
2023-04-24T15:54:54.916Z,98667.25
2023-04-24T15:57:21.941Z,98659.16
2023-04-24T15:59:50.529Z,98671.56
2023-04-24T16:02:21.147Z,98666.72
2023-04-24T16:04:49.788Z,98667.09
2023-04-24T16:07:18.368Z,98669.84
2023-04-24T16:09:45.824Z,98659.66
2023-04-24T16:12:13.778Z,98663.34
2023-04-24T16:14:41.657Z,98666.13
2023-04-24T16:17:08.841Z,98663.50
2023-04-24T16:19:39.091Z,98673.31
2023-04-24T16:22:06.532Z,98676.66
2023-04-24T16:24:35.415Z,98671.28
2023-04-24T16:27:03.292Z,98672.19
2023-04-24T16:29:31.178Z,98671.59
2023-04-24T16:31:58.204Z,98680.47
2023-04-24T16:34:25.648Z,98676.75
2023-04-24T16:36:55.270Z,98687.84
2023-04-24T16:39:22.932Z,98684.16
2023-04-24T16:41:49.874Z,98676.41
2023-04-24T16:44:17.148Z,98679.88
2023-04-24T16:46:44.166Z,98685.97
2023-04-24T16:49:11.444Z,98688.19
2023-04-24T16:51:38.540Z,98683.97
2023-04-24T16:54:06.054Z,98683.22
2023-04-24T16:56:33.281Z,98685.63
2023-04-24T16:59:00.723Z,98676.56
2023-04-24T17:01:28.835Z,98680.59
2023-04-24T17:04:00.765Z,98690.78
2023-04-24T17:06:28.815Z,98697.78
2023-04-24T17:08:56.203Z,98693.69
2023-04-24T17:11:23.275Z,98687.41
2023-04-24T17:13:51.512Z,98698.13
2023-04-24T17:16:18.512Z,98683.16
2023-04-24T17:18:46.217Z,98694.25
2023-04-24T17:21:13.237Z,98689.25
2023-04-24T17:23:43.248Z,98695.91
2023-04-24T17:26:12.751Z,98698.47
2023-04-24T17:28:40.500Z,98707.50
2023-04-24T17:31:08.101Z,98703.28
2023-04-24T17:33:36.313Z,98702.16
2023-04-24T17:36:07.769Z,98694.00
2023-04-24T17:38:36.079Z,98705.44
2023-04-24T17:41:04.129Z,98715.00
2023-04-24T17:43:33.074Z,98721.09
2023-04-24T17:46:01.638Z,98718.31
2023-04-24T17:48:29.470Z,98717.56
2023-04-24T17:50:57.171Z,98727.13
2023-04-24T17:53:25.917Z,98726.97
2023-04-24T17:55:54.760Z,98722.50
2023-04-24T17:58:22.737Z,98720.81
2023-04-24T18:00:50.788Z,98727.09
2023-04-24T18:03:21.007Z,98726.91
2023-04-24T18:05:48.268Z,98730.44
2023-04-24T18:08:16.247Z,98730.94
2023-04-24T18:10:44.980Z,98738.53
2023-04-24T18:13:12.503Z,98737.78
2023-04-24T18:15:43.838Z,98737.38
2023-04-24T18:18:15.579Z,98740.00
2023-04-24T18:20:46.868Z,98748.31
2023-04-24T18:23:14.629Z,98748.50
2023-04-24T18:25:45.000Z,98745.53
2023-04-24T18:28:13.037Z,98745.94
2023-04-24T18:30:41.116Z,98744.44
2023-04-24T18:33:08.609Z,98749.13
2023-04-24T18:35:35.834Z,98751.88
2023-04-24T18:38:07.620Z,98748.22
2023-04-24T18:40:35.371Z,98750.63
2023-04-24T18:43:02.954Z,98762.25
2023-04-24T18:45:32.444Z,98761.50
2023-04-24T18:48:00.226Z,98763.13
2023-04-24T18:50:29.976Z,98765.31
2023-04-24T18:52:59.347Z,98767.69
2023-04-24T18:55:28.144Z,98758.13
2023-04-24T18:57:55.809Z,98753.44
2023-04-24T19:00:23.610Z,98757.31
2023-04-24T19:02:53.595Z,98761.38
2023-04-24T19:05:21.063Z,98762.84
2023-04-24T19:07:49.335Z,98772.44
2023-04-24T19:10:17.459Z,98765.00
2023-04-24T19:12:45.634Z,98773.31
2023-04-24T19:15:13.159Z,98771.25
2023-04-24T19:17:41.260Z,98773.47
2023-04-24T19:20:09.102Z,98774.22
2023-04-24T19:22:39.569Z,98772.22
2023-04-24T19:25:11.769Z,98779.22
2023-04-24T19:27:40.177Z,98785.75
2023-04-24T19:30:08.462Z,98777.44
2023-04-24T19:32:36.332Z,98775.22
2023-04-24T19:35:06.476Z,98773.69
2023-04-24T19:37:37.151Z,98777.00
2023-04-24T19:40:05.000Z,98777.97
2023-04-24T19:42:43.409Z,98785.31
2023-04-24T19:45:15.158Z,98792.34
2023-04-24T19:47:43.768Z,98796.06
2023-04-24T19:50:15.721Z,98793.84
2023-04-24T19:52:46.456Z,98796.81
2023-04-24T19:55:14.324Z,98798.28
2023-04-24T19:57:42.708Z,98791.81
2023-04-24T20:00:10.249Z,98793.06
2023-04-24T20:02:38.172Z,98791.94
2023-04-24T20:05:05.863Z,98784.88
2023-04-24T20:07:36.651Z,98783.63
2023-04-24T20:10:06.039Z,98782.66
2023-04-24T20:12:34.552Z,98781.41
2023-04-24T20:15:02.529Z,98772.56
2023-04-24T20:17:33.379Z,98775.66
2023-04-24T20:20:00.536Z,98776.75
2023-04-24T20:22:28.049Z,98772.34
2023-04-24T20:24:55.039Z,98767.56
2023-04-24T20:27:22.757Z,98780.09
2023-04-24T20:29:52.189Z,98776.25
2023-04-24T20:32:21.966Z,98782.53
2023-04-24T20:34:48.980Z,98781.97
2023-04-24T20:37:16.457Z,98783.72
2023-04-24T20:39:44.931Z,98786.50
2023-04-24T20:42:13.382Z,98788.16
2023-04-24T20:44:41.595Z,98789.44
2023-04-24T20:47:11.397Z,98787.63
2023-04-24T20:49:38.292Z,98778.69
2023-04-24T20:52:06.527Z,98786.16
2023-04-24T20:54:33.676Z,98786.19
2023-04-24T20:57:01.965Z,98776.97
2023-04-24T20:59:28.835Z,98782.38
2023-04-24T21:01:56.155Z,98786.66
2023-04-24T21:04:23.112Z,98788.31
2023-04-24T21:06:50.762Z,98788.47
2023-04-24T21:09:17.841Z,98793.06
2023-04-24T21:11:45.079Z,98792.31
2023-04-24T21:14:12.000Z,98793.59
2023-04-24T21:16:39.304Z,98793.59
2023-04-24T21:19:06.156Z,98805.00
2023-04-24T21:21:34.130Z,98795.78
2023-04-24T21:24:01.791Z,98806.09
2023-04-24T21:26:29.001Z,98802.78
2023-04-24T21:28:56.056Z,98810.19
2023-04-24T21:31:23.285Z,98810.56
2023-04-24T21:33:50.442Z,98807.59
2023-04-24T21:36:17.741Z,98814.97
2023-04-24T21:38:44.675Z,98817.53
2023-04-24T21:41:11.926Z,98814.00
2023-04-24T21:43:44.697Z,98810.72
2023-04-24T21:46:14.780Z,98810.75
2023-04-24T21:48:44.149Z,98818.72
2023-04-24T21:51:14.531Z,98814.69
2023-04-24T21:53:41.554Z,98821.69
2023-04-24T21:56:09.198Z,98818.94
2023-04-24T21:58:36.540Z,98814.84
2023-04-24T22:01:03.907Z,98811.91
2023-04-24T22:03:31.036Z,98817.25
2023-04-24T22:05:58.549Z,98817.25
2023-04-24T22:08:25.629Z,98816.09
2023-04-24T22:10:53.504Z,98817.38
2023-04-24T22:13:22.764Z,98815.31
2023-04-24T22:15:52.846Z,98819.75
2023-04-24T22:18:19.836Z,98819.16
2023-04-24T22:20:47.344Z,98819.16
2023-04-24T22:23:14.467Z,98818.63
2023-04-24T22:25:41.727Z,98814.34
2023-04-24T22:28:08.553Z,98818.63
2023-04-24T22:30:35.829Z,98822.84
2023-04-24T22:33:03.029Z,98817.66
2023-04-24T22:35:30.319Z,98824.16
2023-04-24T22:37:57.320Z,98818.81
2023-04-24T22:40:25.447Z,98820.09
2023-04-24T22:42:52.843Z,98816.94
2023-04-24T22:45:23.669Z,98817.88
2023-04-24T22:47:50.931Z,98820.97
2023-04-24T22:50:20.957Z,98815.75
2023-04-24T22:52:48.142Z,98823.50
2023-04-24T22:55:15.343Z,98820.22
2023-04-24T22:57:42.388Z,98819.06
2023-04-24T23:00:11.471Z,98829.94
2023-04-24T23:02:42.209Z,98829.34
2023-04-24T23:05:10.403Z,98832.84
2023-04-24T23:07:39.465Z,98830.41
2023-04-24T23:10:07.029Z,98822.09
2023-04-24T23:12:33.928Z,98821.31
2023-04-24T23:15:01.418Z,98822.38
2023-04-24T23:17:28.389Z,98823.84
2023-04-24T23:19:58.042Z,98814.09
2023-04-24T23:22:24.891Z,98808.69
2023-04-24T23:24:52.073Z,98812.00
2023-04-24T23:27:18.955Z,98806.47
2023-04-24T23:29:48.534Z,98821.16
2023-04-24T23:32:15.700Z,98823.72
2023-04-24T23:34:45.799Z,98815.22
2023-04-24T23:37:12.733Z,98822.78
2023-04-24T23:39:39.900Z,98833.13
2023-04-24T23:42:07.801Z,98827.91
2023-04-24T23:44:35.374Z,98831.06
2023-04-24T23:47:02.236Z,98831.06
2023-04-24T23:49:29.439Z,98830.34
2023-04-24T23:51:56.589Z,98833.28
2023-04-24T23:54:26.473Z,98832.34
2023-04-24T23:56:53.388Z,98832.91
2023-04-24T23:59:21.631Z,98829.94
